Time;durP1;ratioP1;P1;durP2;ratioP2;P2;SDS_P1;SDS_P2;PMS_P1;PMS_P2;Temp;Humidity;BMP_temperature;BMP_pressure;BME280_temperature;BME280_humidity;BME280_pressure;Samples;Min_cycle;Max_cycle;Signal;HPM_P1;HPM_P2
2023/07/24 00:01:49;;;;;;;;;;;;;;;17.49;100.00;100435.81;4996159;28;19944;-54
2023/07/24 00:04:14;;;;;;;;;;;;;;;17.49;100.00;100422.63;5007522;28;19920;-55
2023/07/24 00:06:39;;;;;;;;;;;;;;;17.50;100.00;100421.75;5007949;28;19921;-55
2023/07/24 00:09:05;;;;;;;;;;;;;;;17.51;100.00;100417.34;5006770;28;19920;-54
2023/07/24 00:11:30;;;;;;;;;;;;;;;17.51;100.00;100412.97;4996940;28;20419;-55
2023/07/24 00:13:55;;;;;;;;;;;;;;;17.50;100.00;100413.00;4996759;28;19917;-55
2023/07/24 00:16:20;;;;;;;;;;;;;;;17.50;100.00;100416.50;4996610;28;20301;-55
2023/07/24 00:18:45;;;;;;;;;;;;;;;17.51;100.00;100412.97;4999341;28;19924;-55
2023/07/24 00:21:13;;;;;;;;;;;;;;;17.50;100.00;100403.31;5002373;28;19921;-54
2023/07/24 00:23:38;;;;;;;;;;;;;;;17.51;100.00;100398.91;5001674;28;20411;-55
2023/07/24 00:26:03;;;;;;;;;;;;;;;17.51;100.00;100397.16;4994085;28;19929;-55
2023/07/24 00:28:28;;;;;;;;;;;;;;;17.51;100.00;100405.06;4995224;28;19929;-54
2023/07/24 00:30:53;;;;;;;;;;;;;;;17.51;100.00;100393.63;4995889;28;19957;-55
2023/07/24 00:33:19;;;;;;;;;;;;;;;17.50;100.00;100390.16;4993459;28;20497;-54
2023/07/24 00:35:44;;;;;;;;;;;;;;;17.50;100.00;100379.59;4993324;28;19918;-55
2023/07/24 00:38:09;;;;;;;;;;;;;;;17.50;100.00;100379.59;5002741;28;19992;-55
2023/07/24 00:40:34;;;;;;;;;;;;;;;17.48;100.00;100376.13;4994776;28;19918;-55
2023/07/24 00:42:59;;;;;;;;;;;;;;;17.47;100.00;100377.03;5001861;28;20292;-54
2023/07/24 00:45:25;;;;;;;;;;;;;;;17.45;100.00;100378.81;4997872;28;19909;-54
2023/07/24 00:47:50;;;;;;;;;;;;;;;17.43;100.00;100367.41;4998594;28;19921;-55
2023/07/24 00:50:15;;;;;;;;;;;;;;;17.44;100.00;100368.25;4995207;28;20423;-54
2023/07/24 00:52:41;;;;;;;;;;;;;;;17.44;100.00;100360.38;4992366;28;19921;-55
2023/07/24 00:55:07;;;;;;;;;;;;;;;17.44;100.00;100358.63;4997682;28;19921;-55
2023/07/24 00:57:33;;;;;;;;;;;;;;;17.43;100.00;100362.13;5005119;28;20193;-55
2023/07/24 00:59:58;;;;;;;;;;;;;;;17.42;100.00;100343.72;4995349;28;19924;-55
2023/07/24 01:02:25;;;;;;;;;;;;;;;17.40;100.00;100356.91;4996881;28;19927;-55
2023/07/24 01:04:50;;;;;;;;;;;;;;;17.38;100.00;100358.72;4996341;28;19913;-55
2023/07/24 01:07:16;;;;;;;;;;;;;;;17.38;100.00;100350.81;4999101;28;19975;-55
2023/07/24 01:09:41;;;;;;;;;;;;;;;17.36;100.00;100342.91;5001693;28;19925;-54
2023/07/24 01:12:10;;;;;;;;;;;;;;;17.37;100.00;100341.16;4994665;28;19913;-55
2023/07/24 01:14:36;;;;;;;;;;;;;;;17.37;100.00;100346.41;4998403;28;19925;-55
2023/07/24 01:17:05;;;;;;;;;;;;;;;17.37;100.00;100331.47;4992532;28;19920;-55
2023/07/24 01:19:33;;;;;;;;;;;;;;;17.36;100.00;100335.00;4991440;28;20307;-55
2023/07/24 01:22:08;;;;;;;;;;;;;;;17.37;100.00;100328.84;4993764;28;20000;-55
2023/07/24 01:24:37;;;;;;;;;;;;;;;17.38;100.00;100327.09;5000160;28;20012;-55
2023/07/24 01:27:02;;;;;;;;;;;;;;;17.38;100.00;100338.50;4994696;28;20087;-55
2023/07/24 01:29:27;;;;;;;;;;;;;;;17.38;100.00;100335.88;4996511;28;20257;-55
2023/07/24 01:31:53;;;;;;;;;;;;;;;17.38;100.00;100327.09;4994061;28;19929;-55
2023/07/24 01:34:18;;;;;;;;;;;;;;;17.40;100.00;100325.31;4991207;28;19976;-55
2023/07/24 01:36:43;;;;;;;;;;;;;;;17.41;100.00;100326.16;5004949;28;19913;-55
2023/07/24 01:39:09;;;;;;;;;;;;;;;17.43;100.00;100334.94;4997567;28;20097;-55
2023/07/24 01:41:34;;;;;;;;;;;;;;;17.47;100.00;100320.84;4998181;28;19920;-55
2023/07/24 01:43:59;;;;;;;;;;;;;;;17.44;100.00;100326.13;5001082;28;19916;-54
2023/07/24 01:46:24;;;;;;;;;;;;;;;17.39;100.00;100323.56;4991977;28;19920;-55
2023/07/24 01:48:50;;;;;;;;;;;;;;;17.38;100.00;100311.31;4998713;28;19913;-55
2023/07/24 01:51:15;;;;;;;;;;;;;;;17.37;100.00;100317.44;5006830;28;19921;-55
2023/07/24 01:53:40;;;;;;;;;;;;;;;17.39;100.00;100297.22;4999787;28;19940;-55
2023/07/24 01:56:06;;;;;;;;;;;;;;;17.39;100.00;100297.22;5000629;28;19913;-55
2023/07/24 01:58:31;;;;;;;;;;;;;;;17.41;100.00;100294.56;4998246;28;20380;-55
2023/07/24 02:00:56;;;;;;;;;;;;;;;17.41;100.00;100298.09;4993097;28;19972;-55
2023/07/24 02:03:21;;;;;;;;;;;;;;;17.42;100.00;100291.91;4992092;28;19930;-55
2023/07/24 02:05:50;;;;;;;;;;;;;;;17.44;100.00;100289.25;4995877;28;19996;-55
2023/07/24 02:08:15;;;;;;;;;;;;;;;17.44;100.00;100283.97;4995656;28;19918;-55
2023/07/24 02:10:41;;;;;;;;;;;;;;;17.43;100.00;100285.75;4995354;28;19914;-55
2023/07/24 02:13:07;;;;;;;;;;;;;;;17.43;100.00;100274.38;4993418;28;19936;-55
2023/07/24 02:15:32;;;;;;;;;;;;;;;17.42;100.00;100270.84;4999567;28;19920;-55
2023/07/24 02:17:57;;;;;;;;;;;;;;;17.44;100.00;100274.34;5006734;28;19909;-55
2023/07/24 02:20:22;;;;;;;;;;;;;;;17.44;100.00;100270.81;4999787;28;19956;-55
2023/07/24 02:22:48;;;;;;;;;;;;;;;17.45;100.00;100276.09;4993742;28;19921;-55
2023/07/24 02:25:13;;;;;;;;;;;;;;;17.47;100.00;100273.44;5000748;28;20391;-54
2023/07/24 02:27:38;;;;;;;;;;;;;;;17.49;100.00;100276.91;4994014;28;19969;-55
2023/07/24 02:30:04;;;;;;;;;;;;;;;17.49;100.00;100276.91;5004828;28;19975;-55
2023/07/24 02:32:29;;;;;;;;;;;;;;;17.49;100.00;100266.38;4995842;28;19925;-55
2023/07/24 02:34:54;;;;;;;;;;;;;;;17.48;100.00;100270.78;4996652;28;20283;-55
2023/07/24 02:37:19;;;;;;;;;;;;;;;17.49;100.00;100269.84;4999475;28;19991;-54
2023/07/24 02:39:45;;;;;;;;;;;;;;;17.47;100.00;100273.44;4998049;28;19921;-54
2023/07/24 02:42:10;;;;;;;;;;;;;;;17.44;100.00;100276.06;5000872;28;19913;-54
2023/07/24 02:44:35;;;;;;;;;;;;;;;17.45;100.00;100286.63;5009073;28;19928;-55
2023/07/24 02:47:00;;;;;;;;;;;;;;;17.45;100.00;100285.72;4999119;28;19968;-54
2023/07/24 02:49:26;;;;;;;;;;;;;;;17.42;100.00;100280.50;4997718;28;20273;-54
2023/07/24 02:51:51;;;;;;;;;;;;;;;17.43;100.00;100269.94;4998974;28;19920;-55
2023/07/24 02:54:16;;;;;;;;;;;;;;;17.36;100.00;100257.75;5002863;28;19920;-54
2023/07/24 02:56:41;;;;;;;;;;;;;;;17.35;100.00;100256.91;4998612;28;19976;-54
2023/07/24 02:59:06;;;;;;;;;;;;;;;17.34;100.00;100260.41;5006804;28;19979;-55
2023/07/24 03:01:32;;;;;;;;;;;;;;;17.33;100.00;100260.44;5003213;28;19961;-55
2023/07/24 03:03:57;;;;;;;;;;;;;;;17.34;100.00;100270.09;4993884;28;20004;-54
2023/07/24 03:06:22;;;;;;;;;;;;;;;17.31;100.00;100278.03;4996758;28;19913;-54
2023/07/24 03:08:48;;;;;;;;;;;;;;;17.33;100.00;100270.97;4999521;28;19917;-54
2023/07/24 03:11:13;;;;;;;;;;;;;;;17.24;100.00;100256.16;5001480;28;19913;-55
2023/07/24 03:13:40;;;;;;;;;;;;;;;17.13;100.00;100239.66;5000622;28;19921;-54
2023/07/24 03:16:06;;;;;;;;;;;;;;;17.06;100.00;100245.88;5003874;28;19917;-54
2023/07/24 03:18:31;;;;;;;;;;;;;;;17.01;100.00;100244.16;5004904;28;19913;-54
2023/07/24 03:20:57;;;;;;;;;;;;;;;16.99;100.00;100251.22;5001332;28;19924;-55
2023/07/24 03:23:22;;;;;;;;;;;;;;;16.93;100.00;100269.72;4996271;28;19925;-54
2023/07/24 03:25:47;;;;;;;;;;;;;;;16.90;100.00;100274.16;4995961;28;19910;-55
2023/07/24 03:28:13;;;;;;;;;;;;;;;16.82;100.00;100272.44;5002619;28;19926;-54
2023/07/24 03:30:38;;;;;;;;;;;;;;;16.78;100.00;100265.47;4996342;28;19920;-54
2023/07/24 03:33:03;;;;;;;;;;;;;;;16.75;100.00;100247.09;4996610;28;19975;-55
2023/07/24 03:35:28;;;;;;;;;;;;;;;16.73;100.00;100253.25;5003751;28;20351;-54
2023/07/24 03:37:54;;;;;;;;;;;;;;;16.71;100.00;100255.91;5006014;28;19975;-55
2023/07/24 03:40:19;;;;;;;;;;;;;;;16.71;100.00;100248.00;4999680;28;20370;-54
2023/07/24 03:42:44;;;;;;;;;;;;;;;16.69;100.00;100241.91;5001700;28;19913;-54
2023/07/24 03:45:09;;;;;;;;;;;;;;;16.69;100.00;100237.50;5003421;28;19918;-54
2023/07/24 03:47:34;;;;;;;;;;;;;;;16.71;100.00;100239.25;5001977;28;19914;-54
2023/07/24 03:50:00;;;;;;;;;;;;;;;16.74;100.00;100240.06;5004440;28;19909;-55
2023/07/24 03:52:25;;;;;;;;;;;;;;;16.74;100.00;100244.47;4997380;28;19913;-54
2023/07/24 03:54:53;;;;;;;;;;;;;;;16.73;100.00;100238.34;4995053;28;19921;-54
2023/07/24 03:57:18;;;;;;;;;;;;;;;16.73;100.00;100238.34;4998997;28;19956;-55
2023/07/24 03:59:43;;;;;;;;;;;;;;;16.74;100.00;100234.81;4995740;28;19965;-54
2023/07/24 04:02:09;;;;;;;;;;;;;;;16.74;100.00;100250.59;4995767;28;19988;-54
2023/07/24 04:04:34;;;;;;;;;;;;;;;16.74;100.00;100244.47;5000289;28;19920;-54
2023/07/24 04:06:59;;;;;;;;;;;;;;;16.74;100.00;100253.22;4998234;28;20357;-54
2023/07/24 04:09:25;;;;;;;;;;;;;;;16.75;100.00;100257.59;4997296;28;19913;-54
2023/07/24 04:11:50;;;;;;;;;;;;;;;16.74;100.00;100255.84;5001547;28;19923;-54
2023/07/24 04:14:15;;;;;;;;;;;;;;;16.74;100.00;100260.25;5000974;28;20163;-54
2023/07/24 04:16:40;;;;;;;;;;;;;;;16.74;100.00;100265.53;5000706;28;19917;-54
2023/07/24 04:19:05;;;;;;;;;;;;;;;16.72;100.00;100262.06;5003341;28;19918;-54
2023/07/24 04:21:31;;;;;;;;;;;;;;;16.70;100.00;100259.44;5001031;28;19925;-54
2023/07/24 04:23:56;;;;;;;;;;;;;;;16.67;100.00;100255.06;5000076;28;19940;-54
2023/07/24 04:26:21;;;;;;;;;;;;;;;16.63;100.00;100261.25;5000610;28;20283;-54
2023/07/24 04:28:46;;;;;;;;;;;;;;;16.62;100.00;100258.63;4997900;28;20000;-54
2023/07/24 04:31:11;;;;;;;;;;;;;;;16.60;100.00;100258.66;4992478;28;19922;-54
2023/07/24 04:33:37;;;;;;;;;;;;;;;16.59;100.00;100251.66;5002789;28;19967;-54
2023/07/24 04:36:02;;;;;;;;;;;;;;;16.60;100.00;100257.81;5006083;28;19921;-54
2023/07/24 04:38:27;;;;;;;;;;;;;;;16.62;100.00;100269.16;4999695;28;19972;-55
2023/07/24 04:40:52;;;;;;;;;;;;;;;16.61;100.00;100268.31;4991384;28;19929;-54
2023/07/24 04:43:17;;;;;;;;;;;;;;;16.59;100.00;100270.06;4992821;28;19918;-54
2023/07/24 04:45:43;;;;;;;;;;;;;;;16.60;100.00;100273.59;5000749;28;19914;-54
2023/07/24 04:48:08;;;;;;;;;;;;;;;16.59;100.00;100263.94;4995669;28;20415;-54
2023/07/24 04:50:33;;;;;;;;;;;;;;;16.61;100.00;100262.16;4997707;28;19940;-54
2023/07/24 04:52:58;;;;;;;;;;;;;;;16.61;100.00;100265.66;5003751;28;19928;-54
2023/07/24 04:55:24;;;;;;;;;;;;;;;16.58;100.00;100265.69;4992882;28;20411;-54
2023/07/24 04:57:49;;;;;;;;;;;;;;;16.58;100.00;100270.06;5000671;28;19993;-54
2023/07/24 05:00:14;;;;;;;;;;;;;;;16.64;100.00;100270.00;4997104;28;19935;-54
2023/07/24 05:02:39;;;;;;;;;;;;;;;16.55;100.00;100270.13;4998420;28;19925;-54
2023/07/24 05:05:05;;;;;;;;;;;;;;;16.49;100.00;100263.16;4996588;28;19997;-54
2023/07/24 05:07:30;;;;;;;;;;;;;;;16.44;100.00;100260.56;4999947;28;19998;-54
2023/07/24 05:09:55;;;;;;;;;;;;;;;16.40;100.00;100261.50;4996433;28;20012;-52
2023/07/24 05:12:21;;;;;;;;;;;;;;;16.36;100.00;100264.16;4995686;28;19976;-54
2023/07/24 05:14:46;;;;;;;;;;;;;;;16.33;100.00;100267.69;4995743;28;20000;-54
2023/07/24 05:17:11;;;;;;;;;;;;;;;16.30;100.00;100270.34;4996437;28;20419;-54
2023/07/24 05:19:36;;;;;;;;;;;;;;;16.27;100.00;100286.16;4993224;28;20296;-54
2023/07/24 05:22:01;;;;;;;;;;;;;;;16.26;100.00;100281.78;4998555;28;19918;-53
2023/07/24 05:24:27;;;;;;;;;;;;;;;16.24;100.00;100281.78;4999707;28;19960;-54
2023/07/24 05:26:52;;;;;;;;;;;;;;;16.23;100.00;100280.03;5001722;28;20280;-54
2023/07/24 05:29:17;;;;;;;;;;;;;;;16.27;100.00;100286.16;4996904;28;20383;-54
2023/07/24 05:31:42;;;;;;;;;;;;;;;16.24;100.00;100283.56;4997800;28;19987;-54
2023/07/24 05:34:07;;;;;;;;;;;;;;;16.26;100.00;100279.16;4999147;28;19957;-53
2023/07/24 05:36:33;;;;;;;;;;;;;;;16.24;100.00;100286.19;5000983;28;19918;-54
2023/07/24 05:38:58;;;;;;;;;;;;;;;16.27;100.00;100280.91;4999803;28;20016;-54
2023/07/24 05:41:23;;;;;;;;;;;;;;;16.29;100.00;100287.91;5002711;28;19918;-54
2023/07/24 05:43:48;;;;;;;;;;;;;;;16.33;100.00;100292.22;4995873;28;19957;-54
2023/07/24 05:46:13;;;;;;;;;;;;;;;16.36;100.00;100286.06;4992418;28;19939;-54
2023/07/24 05:48:39;;;;;;;;;;;;;;;16.39;100.00;100287.81;5001689;28;19944;-54
2023/07/24 05:51:04;;;;;;;;;;;;;;;16.41;100.00;100288.63;5002463;28;19967;-54
2023/07/24 05:53:29;;;;;;;;;;;;;;;16.44;100.00;100291.28;5000593;28;19925;-54
2023/07/24 05:55:58;;;;;;;;;;;;;;;16.45;100.00;100298.25;4998740;28;20004;-54
2023/07/24 05:58:23;;;;;;;;;;;;;;;16.43;100.00;100303.53;4997349;28;19976;-54
2023/07/24 06:00:49;;;;;;;;;;;;;;;16.44;100.00;100310.53;4998061;28;19921;-54
2023/07/24 06:03:14;;;;;;;;;;;;;;;16.48;100.00;100312.25;5001821;28;19952;-54
2023/07/24 06:05:39;;;;;;;;;;;;;;;16.47;100.00;100300.00;5003882;28;20391;-54
2023/07/24 06:08:04;;;;;;;;;;;;;;;16.49;100.00;100303.47;5003167;28;19976;-54
2023/07/24 06:10:29;;;;;;;;;;;;;;;16.51;100.00;100298.19;5007071;28;19964;-54
2023/07/24 06:12:55;;;;;;;;;;;;;;;16.49;100.00;100303.47;4995333;28;19921;-54
2023/07/24 06:15:20;;;;;;;;;;;;;;;16.50;100.00;100302.59;4994530;28;19957;-54
2023/07/24 06:17:45;;;;;;;;;;;;;;;16.55;100.00;100304.31;4995709;28;20091;-54
2023/07/24 06:20:10;;;;;;;;;;;;;;;16.58;100.00;100312.16;4997553;28;19917;-54
2023/07/24 06:22:37;;;;;;;;;;;;;;;16.59;100.00;100311.28;4995228;28;19922;-54
2023/07/24 06:25:02;;;;;;;;;;;;;;;16.63;100.00;100305.09;4996186;28;20447;-54
2023/07/24 06:27:27;;;;;;;;;;;;;;;16.69;100.00;100302.41;4998849;28;19945;-54
2023/07/24 06:29:52;;;;;;;;;;;;;;;16.80;100.00;100308.44;4996616;28;19918;-54
2023/07/24 06:32:17;;;;;;;;;;;;;;;16.85;100.00;100303.13;4998357;28;19917;-54
2023/07/24 06:34:43;;;;;;;;;;;;;;;16.90;100.00;100303.97;4995041;28;20516;-54
2023/07/24 06:37:08;;;;;;;;;;;;;;;16.96;100.00;100310.91;4993889;28;19915;-54
2023/07/24 06:39:33;;;;;;;;;;;;;;;17.01;100.00;100303.84;5001403;28;19922;-55
2023/07/24 06:41:58;;;;;;;;;;;;;;;17.00;100.00;100310.00;4997935;28;20451;-54
2023/07/24 06:44:23;;;;;;;;;;;;;;;17.02;100.00;100306.47;5003727;28;19921;-55
2023/07/24 06:46:49;;;;;;;;;;;;;;;17.02;100.00;100318.75;4994328;28;20636;-54
2023/07/24 06:49:14;;;;;;;;;;;;;;;17.01;100.00;100309.09;4989785;28;19913;-54
2023/07/24 06:51:39;;;;;;;;;;;;;;;17.06;100.00;100309.94;4996849;28;19925;-54
2023/07/24 06:54:04;;;;;;;;;;;;;;;17.02;100.00;100305.59;4997859;28;20394;-53
2023/07/24 06:56:30;;;;;;;;;;;;;;;17.01;100.00;100302.06;5001341;28;19921;-54
2023/07/24 06:58:55;;;;;;;;;;;;;;;16.99;100.00;100303.88;4995780;28;19927;-54
2023/07/24 07:01:20;;;;;;;;;;;;;;;16.94;100.00;100304.81;4999298;28;19949;-54
2023/07/24 07:03:45;;;;;;;;;;;;;;;16.91;100.00;100300.44;4995594;28;20299;-54
2023/07/24 07:06:11;;;;;;;;;;;;;;;16.91;100.00;100302.22;4996850;28;20391;-55
2023/07/24 07:08:37;;;;;;;;;;;;;;;16.95;100.00;100306.56;4996965;28;19956;-55
2023/07/24 07:11:02;;;;;;;;;;;;;;;16.92;100.00;100303.97;4992300;28;19920;-54
2023/07/24 07:13:27;;;;;;;;;;;;;;;16.85;100.00;100303.97;4995270;28;19954;-54
2023/07/24 07:15:53;;;;;;;;;;;;;;;16.85;100.00;100306.59;4989577;28;19914;-54
2023/07/24 07:18:18;;;;;;;;;;;;;;;16.89;100.00;100311.88;4993986;28;19913;-54
2023/07/24 07:20:46;;;;;;;;;;;;;;;16.94;100.00;100305.66;4994357;28;19953;-54
2023/07/24 07:23:12;;;;;;;;;;;;;;;16.84;100.00;100302.25;4996869;28;19999;-54
2023/07/24 07:25:37;;;;;;;;;;;;;;;16.78;100.00;100294.41;5008293;28;20001;-54
2023/07/24 07:28:02;;;;;;;;;;;;;;;16.78;100.00;100304.94;4998266;28;20364;-54
2023/07/24 07:30:27;;;;;;;;;;;;;;;16.74;100.00;100297.94;4998271;28;19992;-54
2023/07/24 07:32:52;;;;;;;;;;;;;;;16.71;100.00;100307.66;5001321;28;19913;-54
2023/07/24 07:35:18;;;;;;;;;;;;;;;16.66;100.00;100300.66;5003099;28;19921;-53
2023/07/24 07:37:43;;;;;;;;;;;;;;;16.62;100.00;100308.63;4997533;28;19928;-54
2023/07/24 07:40:08;;;;;;;;;;;;;;;16.60;100.00;100297.25;4998143;28;19924;-54
2023/07/24 07:42:34;;;;;;;;;;;;;;;16.64;100.00;100312.09;5000791;28;19928;-54
2023/07/24 07:44:59;;;;;;;;;;;;;;;16.77;100.00;100311.09;4999535;28;20364;-54
2023/07/24 07:47:24;;;;;;;;;;;;;;;16.91;100.00;100297.81;5001528;28;19953;-54
2023/07/24 07:49:49;;;;;;;;;;;;;;;16.96;100.00;100297.75;5000359;28;19995;-54
2023/07/24 07:52:17;;;;;;;;;;;;;;;16.97;100.00;100302.13;4999672;28;19992;-54
2023/07/24 07:54:45;;;;;;;;;;;;;;;17.06;100.00;100291.50;4994064;28;19917;-54
2023/07/24 07:57:10;;;;;;;;;;;;;;;17.10;100.00;100301.09;4995594;28;19924;-54
2023/07/24 07:59:35;;;;;;;;;;;;;;;17.20;100.00;100296.59;4995019;28;20008;-54
2023/07/24 08:02:01;;;;;;;;;;;;;;;17.26;100.00;100298.28;4992293;28;19925;-54
2023/07/24 08:04:26;;;;;;;;;;;;;;;17.33;100.00;100299.94;5000623;28;20278;-54
2023/07/24 08:06:51;;;;;;;;;;;;;;;17.30;100.00;100302.63;4997936;28;19914;-54
2023/07/24 08:09:17;;;;;;;;;;;;;;;17.35;100.00;100300.78;4998846;28;19913;-54
2023/07/24 08:11:42;;;;;;;;;;;;;;;17.41;100.00;100306.00;5002068;28;20361;-54
2023/07/24 08:14:07;;;;;;;;;;;;;;;17.46;100.00;100304.16;4998453;28;19960;-54
2023/07/24 08:16:33;;;;;;;;;;;;;;;17.58;100.00;100304.88;5004063;28;19920;-54
2023/07/24 08:18:58;;;;;;;;;;;;;;;17.50;100.00;100308.47;4995939;28;19917;-54
2023/07/24 08:21:23;;;;;;;;;;;;;;;17.47;100.00;100305.03;5004095;28;19948;-55
2023/07/24 08:23:48;;;;;;;;;;;;;;;17.40;100.00;100298.97;4995242;28;19952;-54
2023/07/24 08:26:13;;;;;;;;;;;;;;;17.36;100.00;100300.75;4994280;28;20261;-54
2023/07/24 08:28:42;;;;;;;;;;;;;;;17.38;100.00;100291.09;5004453;28;20060;-54
2023/07/24 08:31:07;;;;;;;;;;;;;;;17.50;100.00;100290.06;5003336;28;19918;-55
2023/07/24 08:33:32;;;;;;;;;;;;;;;17.48;100.00;100301.50;4996084;28;19924;-54
2023/07/24 08:36:01;;;;;;;;;;;;;;;17.55;100.00;100304.03;4996468;28;19913;-57
2023/07/24 08:38:26;;;;;;;;;;;;;;;17.64;100.00;100295.13;5002046;28;19913;-54
2023/07/24 08:41:02;;;;;;;;;;;;;;;17.63;100.00;100301.28;4995271;28;20525;-55
2023/07/24 08:43:28;;;;;;;;;;;;;;;17.67;100.00;100296.81;4997849;28;19914;-54
2023/07/24 08:45:54;;;;;;;;;;;;;;;17.66;100.00;100295.97;5002274;28;19945;-54
2023/07/24 08:48:20;;;;;;;;;;;;;;;17.69;100.00;100300.31;5000939;28;19949;-55
2023/07/24 08:50:46;;;;;;;;;;;;;;;17.72;100.00;100297.66;4989232;28;20300;-55
2023/07/24 08:53:12;;;;;;;;;;;;;;;17.79;100.00;100299.28;4989871;28;21122;-54
2023/07/24 08:55:39;;;;;;;;;;;;;;;17.73;100.00;100294.13;4991644;28;19914;-54
2023/07/24 08:58:06;;;;;;;;;;;;;;;17.73;100.00;100289.72;5005474;28;20376;-54
2023/07/24 09:00:32;;;;;;;;;;;;;;;17.80;100.00;100290.50;5005386;28;19967;-54
2023/07/24 09:02:57;;;;;;;;;;;;;;;17.76;100.00;100285.31;4994136;28;19948;-54
2023/07/24 09:05:22;;;;;;;;;;;;;;;17.75;100.00;100284.41;5000339;28;19917;-54
2023/07/24 09:07:47;;;;;;;;;;;;;;;17.72;100.00;100284.47;4995701;28;19913;-54
2023/07/24 09:10:13;;;;;;;;;;;;;;;17.69;100.00;100282.75;4993889;28;19983;-54
2023/07/24 09:12:38;;;;;;;;;;;;;;;17.68;100.00;100267.84;5003825;28;20490;-54
2023/07/24 09:15:04;;;;;;;;;;;;;;;17.72;100.00;100263.41;4999109;28;20299;-54
2023/07/24 09:17:29;;;;;;;;;;;;;;;17.67;100.00;100258.19;5000873;28;20384;-54
2023/07/24 09:19:55;;;;;;;;;;;;;;;17.78;100.00;100263.28;4996090;28;19917;-54
2023/07/24 09:22:20;;;;;;;;;;;;;;;17.70;100.00;100252.88;5001661;28;20372;-54
2023/07/24 09:24:49;;;;;;;;;;;;;;;17.82;100.00;100251.81;4992198;28;19953;-54
2023/07/24 09:27:14;;;;;;;;;;;;;;;17.95;100.00;100255.16;4992587;28;20386;-54
2023/07/24 09:29:40;;;;;;;;;;;;;;;17.99;100.00;100241.03;5001030;28;19913;-55
2023/07/24 09:32:05;;;;;;;;;;;;;;;17.97;100.00;100242.81;4995838;28;19913;-55
2023/07/24 09:34:31;;;;;;;;;;;;;;;18.06;100.00;100240.03;4995524;28;20019;-55
2023/07/24 09:36:56;;;;;;;;;;;;;;;18.06;100.00;100244.41;4994475;28;19935;-55
2023/07/24 09:39:25;;;;;;;;;;;;;;;18.05;100.00;100243.56;4992781;28;19917;-55
2023/07/24 09:41:50;;;;;;;;;;;;;;;18.05;100.00;100224.25;4996645;28;20379;-55
2023/07/24 09:44:15;;;;;;;;;;;;;;;18.08;100.00;100213.66;4995711;28;19914;-55
2023/07/24 09:46:43;;;;;;;;;;;;;;;18.05;100.00;100218.97;4992572;28;20291;-55
2023/07/24 09:49:08;;;;;;;;;;;;;;;18.04;100.00;100212.81;5004449;28;19960;-55
2023/07/24 09:51:33;;;;;;;;;;;;;;;18.01;100.00;100201.47;4994429;28;20026;-55
2023/07/24 09:54:05;;;;;;;;;;;;;;;17.99;100.00;100203.28;4992307;28;20335;-55
2023/07/24 09:56:32;;;;;;;;;;;;;;;17.96;100.00;100208.56;4996531;28;19922;-55
2023/07/24 09:58:58;;;;;;;;;;;;;;;17.98;100.00;100190.97;4993692;28;19914;-55
2023/07/24 10:01:24;;;;;;;;;;;;;;;17.97;100.00;100200.63;5004296;28;19928;-55
2023/07/24 10:03:50;;;;;;;;;;;;;;;17.94;100.00;100189.28;4992581;28;20008;-55
2023/07/24 10:06:16;;;;;;;;;;;;;;;17.85;100.00;100199.03;4989763;28;20072;-55
2023/07/24 10:08:41;;;;;;;;;;;;;;;17.80;100.00;100197.38;5001300;28;20426;-55
2023/07/24 10:11:07;;;;;;;;;;;;;;;17.76;100.00;100212.38;5002487;28;19918;-55
2023/07/24 10:13:36;;;;;;;;;;;;;;;17.72;100.00;100216.81;4998454;28;20020;-55
2023/07/24 10:16:03;;;;;;;;;;;;;;;17.73;100.00;100223.84;4997166;28;20051;-55
2023/07/24 10:18:29;;;;;;;;;;;;;;;17.69;100.00;100222.16;4992967;28;19921;-55
2023/07/24 10:21:02;;;;;;;;;;;;;;;17.63;100.00;100224.03;4990121;28;20387;-55
2023/07/24 10:23:27;;;;;;;;;;;;;;;17.63;100.00;100224.88;4995400;28;19920;-55
2023/07/24 10:25:53;;;;;;;;;;;;;;;17.61;100.00;100231.94;4995408;28;19918;-55
2023/07/24 10:28:18;;;;;;;;;;;;;;;17.62;100.00;100238.09;4996773;28;19917;-55
2023/07/24 10:30:44;;;;;;;;;;;;;;;17.65;100.00;100244.16;4996602;28;19917;-55
2023/07/24 10:33:12;;;;;;;;;;;;;;;17.67;100.00;100238.88;4989887;28;19921;-55
2023/07/24 10:35:38;;;;;;;;;;;;;;;17.70;100.00;100244.13;4994988;28;20288;-55
2023/07/24 10:38:03;;;;;;;;;;;;;;;17.73;100.00;100236.16;4989374;28;19955;-55
2023/07/24 10:40:28;;;;;;;;;;;;;;;17.66;100.00;100231.88;4991803;28;19964;-55
2023/07/24 10:43:07;;;;;;;;;;;;;;;17.59;100.00;100230.22;4993377;28;19917;-56
2023/07/24 10:45:42;;;;;;;;;;;;;;;17.58;100.00;100234.59;4993025;28;19921;-56
2023/07/24 10:48:11;;;;;;;;;;;;;;;17.65;100.00;100244.16;4989611;28;19952;-56
2023/07/24 10:50:46;;;;;;;;;;;;;;;17.71;100.00;100251.09;4996112;28;19914;-56
2023/07/24 10:53:15;;;;;;;;;;;;;;;17.81;100.00;100257.09;4988715;28;19968;-55
2023/07/24 10:55:40;;;;;;;;;;;;;;;17.91;100.00;100253.47;4995242;28;19921;-55
2023/07/24 10:58:06;;;;;;;;;;;;;;;18.00;100.00;100244.53;4999025;28;19972;-55
2023/07/24 11:00:31;;;;;;;;;;;;;;;18.07;100.00;100248.81;5000336;28;19921;-56
2023/07/24 11:02:56;;;;;;;;;;;;;;;18.16;100.00;100248.66;5004140;28;20406;-55
2023/07/24 11:05:22;;;;;;;;;;;;;;;18.21;100.00;100245.94;4994861;28;19949;-55
2023/07/24 11:07:48;;;;;;;;;;;;;;;18.23;100.00;100249.41;4994767;28;19948;-55
2023/07/24 11:10:20;;;;;;;;;;;;;;;18.24;100.00;100251.16;5000458;28;19917;-55
2023/07/24 11:12:45;;;;;;;;;;;;;;;18.34;100.00;100246.59;5001954;28;19952;-55
2023/07/24 11:15:11;;;;;;;;;;;;;;;18.42;100.00;100244.66;4995815;28;20407;-55
2023/07/24 11:17:40;;;;;;;;;;;;;;;18.56;100.00;100258.47;4994791;28;20000;-56
2023/07/24 11:20:08;;;;;;;;;;;;;;;18.63;100.00;100261.88;4994057;28;19926;-55
2023/07/24 11:22:33;;;;;;;;;;;;;;;18.58;100.00;100250.53;4996145;28;19960;-56
2023/07/24 11:24:58;;;;;;;;;;;;;;;18.55;100.00;100261.13;5007971;28;19964;-56
2023/07/24 11:27:24;;;;;;;;;;;;;;;18.54;100.00;100249.72;5000179;28;19945;-56
2023/07/24 11:29:50;;;;;;;;;;;;;;;18.52;100.00;100250.66;4994783;28;19968;-55
2023/07/24 11:32:21;;;;;;;;;;;;;;;18.53;100.00;100250.63;4993736;28;19917;-55
2023/07/24 11:34:47;;;;;;;;;;;;;;;18.60;100.00;100254.88;5005560;28;19959;-55
2023/07/24 11:37:13;;;;;;;;;;;;;;;18.67;100.00;100254.75;4998648;28;19917;-56
2023/07/24 11:39:38;;;;;;;;;;;;;;;18.72;100.00;100260.81;4997705;28;19917;-55
2023/07/24 11:42:03;;;;;;;;;;;;;;;18.86;100.00;100260.56;4993259;28;19913;-55
2023/07/24 11:44:29;;;;;;;;;;;;;;;18.85;100.00;100254.41;5001349;28;19960;-55
2023/07/24 11:47:03;;;;;;;;;;;;;;;18.91;100.00;100249.00;4994751;28;19949;-55
2023/07/24 11:49:32;;;;;;;;;;;;;;;18.97;100.00;100239.25;4994755;28;19913;-55
2023/07/24 11:52:02;;;;;;;;;;;;;;;18.99;100.00;100237.44;4998457;28;19996;-55
2023/07/24 11:54:27;;;;;;;;;;;;;;;19.00;97.08;100228.63;4995687;28;19944;-55
2023/07/24 11:56:52;;;;;;;;;;;;;;;18.94;98.50;100240.16;5000329;28;20300;-55
2023/07/24 11:59:17;;;;;;;;;;;;;;;18.98;99.11;100238.34;4998640;28;19967;-56
2023/07/24 12:01:47;;;;;;;;;;;;;;;19.02;98.58;100229.47;4997371;28;20394;-55
2023/07/24 12:04:13;;;;;;;;;;;;;;;19.08;99.32;100224.91;5000802;28;19921;-55
2023/07/24 12:06:38;;;;;;;;;;;;;;;19.18;98.58;100228.22;4999085;28;19963;-55
2023/07/24 12:09:07;;;;;;;;;;;;;;;19.31;95.12;100228.81;4995833;28;20510;-55
2023/07/24 12:11:33;;;;;;;;;;;;;;;19.26;95.00;100223.66;5001858;28;19917;-56
2023/07/24 12:13:58;;;;;;;;;;;;;;;19.42;95.43;100225.94;5002204;28;19917;-55
2023/07/24 12:16:23;;;;;;;;;;;;;;;19.51;95.58;100215.16;4997626;28;20913;-55
2023/07/24 12:18:48;;;;;;;;;;;;;;;19.63;94.93;100216.63;4999413;28;20448;-56
2023/07/24 12:21:14;;;;;;;;;;;;;;;19.72;94.16;100207.63;4995183;28;19921;-54